Time;durP1;ratioP1;P1;durP2;ratioP2;P2;SDS_P1;SDS_P2;PMS_P1;PMS_P2;Temp;Humidity;BMP_temperature;BMP_pressure;BME280_temperature;BME280_humidity;BME280_pressure;Samples;Min_cycle;Max_cycle;Signal;HPM_P1;HPM_P2
2023/12/16 00:00:43;;;;;;;3.30;1.90;;;;;;;;;;5088838;28;20045;-71
2023/12/16 00:03:10;;;;;;;4.70;1.90;;;;;;;;;;5088253;28;20052;-71
2023/12/16 00:05:37;;;;;;;2.95;1.77;;;;;;;;;;5088522;28;20087;-71
2023/12/16 00:08:04;;;;;;;3.83;1.63;;;;;;;;;;5088368;28;20938;-71
2023/12/16 00:10:31;;;;;;;2.75;1.55;;;;;;;;;;5088511;28;20143;-71
2023/12/16 00:12:58;;;;;;;3.03;1.88;;;;;;;;;;5088472;28;20067;-70
2023/12/16 00:15:25;;;;;;;2.97;1.50;;;;;;;;;;5088362;28;20047;-71
2023/12/16 00:17:52;;;;;;;2.78;1.60;;;;;;;;;;5088076;28;20048;-71
2023/12/16 00:20:18;;;;;;;5.20;1.88;;;;;;;;;;5088607;28;20068;-70
2023/12/16 00:22:45;;;;;;;4.07;1.75;;;;;;;;;;5087987;28;20052;-71
2023/12/16 00:25:12;;;;;;;2.80;1.70;;;;;;;;;;5087873;28;20059;-71
2023/12/16 00:27:39;;;;;;;2.85;1.63;;;;;;;;;;5087926;28;20087;-71
2023/12/16 00:30:08;;;;;;;2.05;1.52;;;;;;;;;;5088304;28;20044;-71
2023/12/16 00:32:34;;;;;;;3.13;1.52;;;;;;;;;;5088022;28;20574;-71
2023/12/16 00:35:02;;;;;;;2.78;1.50;;;;;;;;;;5087916;28;20503;-71
2023/12/16 00:37:29;;;;;;;2.45;1.50;;;;;;;;;;5087927;28;20052;-71
2023/12/16 00:39:56;;;;;;;2.38;1.60;;;;;;;;;;5087953;28;20071;-71
2023/12/16 00:42:22;;;;;;;2.63;1.60;;;;;;;;;;5088338;28;20079;-69
2023/12/16 00:44:49;;;;;;;3.08;1.83;;;;;;;;;;5088231;28;20048;-70
2023/12/16 00:47:16;;;;;;;1.90;1.38;;;;;;;;;;5088291;28;20044;-70
2023/12/16 00:49:43;;;;;;;3.00;1.77;;;;;;;;;;5091799;28;20066;-70
2023/12/16 00:52:09;;;;;;;3.35;1.80;;;;;;;;;;5092034;28;20125;-70
2023/12/16 00:54:36;;;;;;;2.72;1.70;;;;;;;;;;5091100;28;20075;-70
2023/12/16 00:57:03;;;;;;;2.63;1.60;;;;;;;;;;5091590;28;20059;-70
2023/12/16 00:59:30;;;;;;;3.38;1.67;;;;;;;;;;5089983;28;20040;-69
2023/12/16 01:01:57;;;;;;;3.58;1.90;;;;;;;;;;5091943;28;20040;-70
2023/12/16 01:04:23;;;;;;;2.22;1.48;;;;;;;;;;5091129;28;20447;-70
2023/12/16 01:06:50;;;;;;;2.92;1.90;;;;;;;;;;5091413;28;20515;-70
2023/12/16 01:09:17;;;;;;;2.42;1.50;;;;;;;;;;5091274;28;20105;-70
2023/12/16 01:11:43;;;;;;;2.78;1.50;;;;;;;;;;5091273;28;20044;-70
2023/12/16 01:14:12;;;;;;;3.10;1.52;;;;;;;;;;5091203;28;20071;-70
2023/12/16 01:16:39;;;;;;;3.50;1.85;;;;;;;;;;5089927;28;20048;-70
2023/12/16 01:19:06;;;;;;;2.05;1.38;;;;;;;;;;5090839;28;20044;-70
2023/12/16 01:21:40;;;;;;;2.30;1.38;;;;;;;;;;5091456;28;20048;-70
2023/12/16 01:24:07;;;;;;;2.55;1.55;;;;;;;;;;5090510;28;20058;-70
2023/12/16 01:26:34;;;;;;;2.15;1.35;;;;;;;;;;5090810;28;20070;-68
2023/12/16 01:29:00;;;;;;;4.32;1.45;;;;;;;;;;5090800;28;20044;-70
2023/12/16 01:31:27;;;;;;;3.25;1.63;;;;;;;;;;5091192;28;20043;-70
2023/12/16 01:33:54;;;;;;;2.95;1.60;;;;;;;;;;5090655;28;20106;-70
2023/12/16 01:36:22;;;;;;;2.03;1.40;;;;;;;;;;5090591;28;20670;-70
2023/12/16 01:38:48;;;;;;;2.42;1.42;;;;;;;;;;5090267;28;20488;-70
2023/12/16 01:41:15;;;;;;;4.10;1.48;;;;;;;;;;5090972;28;20048;-71
2023/12/16 01:43:42;;;;;;;2.20;1.20;;;;;;;;;;5090612;28;20188;-69
2023/12/16 01:46:09;;;;;;;2.30;1.20;;;;;;;;;;5090926;28;20101;-70
2023/12/16 01:48:35;;;;;;;3.50;1.35;;;;;;;;;;5090641;28;20052;-70
2023/12/16 01:51:03;;;;;;;2.38;1.45;;;;;;;;;;5090733;28;20055;-70
2023/12/16 01:53:31;;;;;;;2.08;1.27;;;;;;;;;;5090310;28;20062;-70
2023/12/16 01:55:59;;;;;;;2.28;1.50;;;;;;;;;;5089744;28;20055;-70
2023/12/16 01:58:25;;;;;;;2.67;1.50;;;;;;;;;;5090321;28;20054;-70
2023/12/16 02:00:52;;;;;;;3.80;2.25;;;;;;;;;;5089653;28;20648;-70
2023/12/16 02:03:20;;;;;;;2.17;1.50;;;;;;;;;;5090647;28;20048;-70
2023/12/16 02:05:47;;;;;;;2.00;1.30;;;;;;;;;;5090081;28;20052;-70
2023/12/16 02:08:14;;;;;;;2.58;1.42;;;;;;;;;;5090371;28;20086;-70
2023/12/16 02:10:40;;;;;;;2.63;1.25;;;;;;;;;;5089876;28;20053;-70
2023/12/16 02:13:07;;;;;;;2.03;1.23;;;;;;;;;;5090095;28;20051;-70
2023/12/16 02:15:34;;;;;;;2.97;1.60;;;;;;;;;;5089723;28;20048;-69
2023/12/16 02:18:01;;;;;;;2.55;1.38;;;;;;;;;;5090219;28;20048;-70
2023/12/16 02:20:28;;;;;;;1.80;1.15;;;;;;;;;;5089860;28;20040;-70
2023/12/16 02:22:54;;;;;;;1.95;1.25;;;;;;;;;;5090208;28;20044;-69
2023/12/16 02:25:21;;;;;;;2.40;1.40;;;;;;;;;;5088983;28;20135;-70
2023/12/16 02:27:48;;;;;;;1.77;1.33;;;;;;;;;;5090056;28;20059;-69
2023/12/16 02:30:14;;;;;;;2.35;1.58;;;;;;;;;;5089684;28;20090;-69
2023/12/16 02:32:42;;;;;;;2.85;1.73;;;;;;;;;;5089745;28;20111;-70
2023/12/16 02:35:09;;;;;;;3.30;1.75;;;;;;;;;;5089175;28;20492;-70
2023/12/16 02:37:36;;;;;;;3.22;2.05;;;;;;;;;;5089426;28;20056;-70
2023/12/16 02:40:04;;;;;;;3.05;2.03;;;;;;;;;;5089125;28;20097;-70
2023/12/16 02:42:31;;;;;;;2.85;1.85;;;;;;;;;;5089901;28;20052;-70
2023/12/16 02:44:57;;;;;;;4.32;2.13;;;;;;;;;;5089785;28;20055;-70
2023/12/16 02:47:24;;;;;;;3.63;2.17;;;;;;;;;;5089507;28;20437;-70
2023/12/16 02:49:51;;;;;;;3.92;1.75;;;;;;;;;;5089545;28;20048;-69
2023/12/16 02:52:18;;;;;;;2.97;1.92;;;;;;;;;;5089369;28;20048;-70
2023/12/16 02:54:45;;;;;;;4.22;2.22;;;;;;;;;;5088973;28;20048;-69
2023/12/16 02:57:11;;;;;;;3.50;1.85;;;;;;;;;;5089237;28;20044;-69
2023/12/16 02:59:39;;;;;;;4.25;2.40;;;;;;;;;;5088962;28;20055;-69
2023/12/16 03:02:05;;;;;;;3.63;2.03;;;;;;;;;;5089183;28;20139;-69
2023/12/16 03:04:32;;;;;;;3.65;2.17;;;;;;;;;;5089397;28;20143;-69
2023/12/16 03:06:59;;;;;;;3.65;1.98;;;;;;;;;;5088916;28;20535;-70
2023/12/16 03:09:25;;;;;;;3.92;2.08;;;;;;;;;;5088686;28;20052;-70
2023/12/16 03:11:52;;;;;;;2.60;1.88;;;;;;;;;;5089421;28;20052;-70
2023/12/16 03:14:19;;;;;;;3.20;1.75;;;;;;;;;;5088679;28;20055;-70
2023/12/16 03:16:45;;;;;;;3.65;2.22;;;;;;;;;;5088747;28;20116;-70
2023/12/16 03:19:12;;;;;;;4.85;2.53;;;;;;;;;;5089097;28;20048;-70
2023/12/16 03:21:39;;;;;;;4.40;2.22;;;;;;;;;;5088919;28;20054;-69
2023/12/16 03:24:06;;;;;;;3.92;2.28;;;;;;;;;;5088132;28;20051;-70
2023/12/16 03:26:34;;;;;;;3.78;2.35;;;;;;;;;;5088136;28;20051;-70
2023/12/16 03:29:01;;;;;;;3.67;2.15;;;;;;;;;;5088387;28;20097;-70
2023/12/16 03:31:28;;;;;;;3.92;2.33;;;;;;;;;;5085385;28;20039;-70
2023/12/16 03:33:54;;;;;;;3.53;2.20;;;;;;;;;;5088374;28;20044;-70
2023/12/16 03:36:22;;;;;;;4.10;2.42;;;;;;;;;;5087615;28;20036;-69
2023/12/16 03:38:49;;;;;;;3.25;2.13;;;;;;;;;;5085317;28;20048;-70
2023/12/16 03:41:15;;;;;;;4.78;2.58;;;;;;;;;;5087862;28;20101;-69
2023/12/16 03:43:42;;;;;;;4.30;2.40;;;;;;;;;;5088290;28;20415;-70
2023/12/16 03:46:09;;;;;;;3.63;2.22;;;;;;;;;;5085140;28;20036;-70
2023/12/16 03:48:35;;;;;;;4.22;2.35;;;;;;;;;;5087877;28;20117;-69
2023/12/16 03:51:03;;;;;;;4.72;2.22;;;;;;;;;;5087673;28;20048;-70
2023/12/16 03:53:29;;;;;;;5.82;2.42;;;;;;;;;;5085708;28;20047;-70
2023/12/16 03:55:56;;;;;;;4.22;2.38;;;;;;;;;;5087493;28;20110;-70
2023/12/16 03:58:22;;;;;;;3.65;2.08;;;;;;;;;;5088592;28;20048;-70
2023/12/16 04:00:49;;;;;;;3.13;1.95;;;;;;;;;;5088376;28;20044;-69
2023/12/16 04:03:16;;;;;;;3.38;1.90;;;;;;;;;;5088358;28;20573;-70
2023/12/16 04:05:43;;;;;;;3.63;2.17;;;;;;;;;;5088171;28;20573;-70
2023/12/16 04:08:10;;;;;;;4.18;2.58;;;;;;;;;;5088610;28;20052;-70
2023/12/16 04:10:36;;;;;;;3.60;2.17;;;;;;;;;;5087747;28;20043;-69
2023/12/16 04:13:03;;;;;;;5.20;2.10;;;;;;;;;;5088323;28;20048;-68
2023/12/16 04:15:30;;;;;;;3.80;2.15;;;;;;;;;;5088228;28;20044;-70
2023/12/16 04:17:56;;;;;;;2.60;1.77;;;;;;;;;;5088168;28;20047;-70
2023/12/16 04:20:23;;;;;;;4.20;2.15;;;;;;;;;;5088339;28;20470;-70
2023/12/16 04:22:50;;;;;;;3.55;2.05;;;;;;;;;;5089416;28;20120;-70
2023/12/16 04:25:16;;;;;;;3.25;2.08;;;;;;;;;;5091614;28;20520;-69
2023/12/16 04:27:43;;;;;;;3.45;1.90;;;;;;;;;;5091795;28;20077;-70
2023/12/16 04:30:10;;;;;;;3.45;2.00;;;;;;;;;;5092118;28;20052;-69
2023/12/16 04:32:37;;;;;;;4.38;2.00;;;;;;;;;;5091160;28;20557;-69
2023/12/16 04:35:05;;;;;;;4.25;2.15;;;;;;;;;;5091642;28;20047;-70
2023/12/16 04:37:31;;;;;;;4.13;2.47;;;;;;;;;;5088595;28;20719;-70
2023/12/16 04:39:58;;;;;;;3.15;1.80;;;;;;;;;;5091097;28;20407;-70
2023/12/16 04:42:25;;;;;;;3.03;1.70;;;;;;;;;;5091539;28;20143;-70
2023/12/16 04:44:51;;;;;;;3.28;1.98;;;;;;;;;;5088813;28;20044;-70
2023/12/16 04:47:18;;;;;;;3.50;2.05;;;;;;;;;;5090937;28;20047;-70
2023/12/16 04:49:44;;;;;;;3.10;1.85;;;;;;;;;;5091605;28;20052;-71
2023/12/16 04:52:11;;;;;;;4.82;2.00;;;;;;;;;;5088369;28;20500;-71
2023/12/16 04:54:38;;;;;;;2.80;1.60;;;;;;;;;;5090657;28;20047;-69
2023/12/16 04:57:05;;;;;;;2.92;1.80;;;;;;;;;;5090873;28;20052;-70
2023/12/16 04:59:31;;;;;;;3.28;1.70;;;;;;;;;;5088747;28;20044;-69
2023/12/16 05:01:58;;;;;;;3.22;1.60;;;;;;;;;;5090906;28;20495;-69
2023/12/16 05:04:25;;;;;;;3.28;1.92;;;;;;;;;;5090855;28;20481;-70
2023/12/16 05:06:52;;;;;;;5.00;2.10;;;;;;;;;;5088089;28;20051;-70
2023/12/16 05:09:21;;;;;;;2.50;1.73;;;;;;;;;;5090596;28;20118;-70
2023/12/16 05:11:47;;;;;;;4.05;1.95;;;;;;;;;;5090474;28;20058;-70
2023/12/16 05:14:14;;;;;;;3.90;2.10;;;;;;;;;;5090904;28;20101;-71
2023/12/16 05:16:41;;;;;;;4.45;1.80;;;;;;;;;;5090677;28;20044;-72
2023/12/16 05:19:07;;;;;;;2.42;1.63;;;;;;;;;;5090845;28;20044;-69
2023/12/16 05:21:34;;;;;;;3.10;1.70;;;;;;;;;;5090545;28;20825;-69
2023/12/16 05:24:01;;;;;;;2.83;1.77;;;;;;;;;;5090543;28;20063;-69
2023/12/16 05:26:28;;;;;;;2.67;1.88;;;;;;;;;;5091420;28;20040;-70
2023/12/16 05:28:54;;;;;;;4.00;1.85;;;;;;;;;;5090862;28;20063;-69
2023/12/16 05:31:21;;;;;;;4.68;2.25;;;;;;;;;;5090809;28;20059;-71
2023/12/16 05:33:48;;;;;;;3.15;1.85;;;;;;;;;;5090510;28;20048;-70
2023/12/16 05:36:15;;;;;;;2.78;1.90;;;;;;;;;;5089681;28;20127;-69
2023/12/16 05:38:42;;;;;;;3.38;1.73;;;;;;;;;;5090397;28;20059;-72
2023/12/16 05:41:12;;;;;;;2.83;1.70;;;;;;;;;;5090941;28;20052;-70
2023/12/16 05:43:39;;;;;;;3.43;1.80;;;;;;;;;;5091079;28;20047;-70
2023/12/16 05:46:06;;;;;;;2.88;1.90;;;;;;;;;;5091018;28;20366;-72
2023/12/16 05:48:35;;;;;;;2.70;1.70;;;;;;;;;;5090684;28;20062;-69
2023/12/16 05:51:04;;;;;;;2.40;1.80;;;;;;;;;;5090434;28;20066;-69
2023/12/16 05:53:34;;;;;;;5.70;2.00;;;;;;;;;;5090244;28;20040;-69
2023/12/16 05:56:05;;;;;;;2.88;1.77;;;;;;;;;;5090285;28;20573;-69
2023/12/16 05:58:32;;;;;;;3.40;1.77;;;;;;;;;;5090330;28;20086;-70
2023/12/16 06:00:59;;;;;;;2.67;1.85;;;;;;;;;;5090473;28;20633;-70
2023/12/16 06:03:26;;;;;;;3.10;1.77;;;;;;;;;;5090247;28;20510;-69
2023/12/16 06:05:52;;;;;;;2.58;1.67;;;;;;;;;;5090447;28;20479;-69
2023/12/16 06:08:19;;;;;;;3.58;1.95;;;;;;;;;;5089959;28;20052;-69
2023/12/16 06:10:46;;;;;;;3.28;2.00;;;;;;;;;;5090091;28;20087;-70
2023/12/16 06:13:12;;;;;;;3.42;1.88;;;;;;;;;;5089977;28;20531;-70
2023/12/16 06:15:39;;;;;;;3.10;1.95;;;;;;;;;;5090130;28;20108;-69
2023/12/16 06:18:06;;;;;;;3.03;1.98;;;;;;;;;;5090029;28;20047;-69
2023/12/16 06:20:33;;;;;;;3.15;1.90;;;;;;;;;;5090317;28;20054;-72
2023/12/16 06:23:00;;;;;;;3.03;1.90;;;;;;;;;;5090237;28;20048;-70
2023/12/16 06:25:26;;;;;;;3.05;2.13;;;;;;;;;;5089527;28;20047;-69
2023/12/16 06:27:53;;;;;;;3.38;2.13;;;;;;;;;;5089672;28;20044;-69
2023/12/16 06:30:20;;;;;;;3.75;2.10;;;;;;;;;;5089906;28;20134;-69
2023/12/16 06:32:46;;;;;;;3.03;1.95;;;;;;;;;;5089481;28;20052;-69
2023/12/16 06:35:13;;;;;;;3.63;2.00;;;;;;;;;;5089879;28;20071;-69
2023/12/16 06:37:40;;;;;;;3.67;2.00;;;;;;;;;;5089411;28;20074;-69
2023/12/16 06:40:07;;;;;;;2.92;1.75;;;;;;;;;;5089663;28;20067;-69
2023/12/16 06:42:34;;;;;;;3.08;1.90;;;;;;;;;;5089427;28;20101;-69
2023/12/16 06:45:01;;;;;;;3.10;1.95;;;;;;;;;;5089751;28;20051;-70
2023/12/16 06:47:27;;;;;;;3.50;1.90;;;;;;;;;;5088778;28;20070;-69
2023/12/16 06:49:54;;;;;;;3.08;2.00;;;;;;;;;;5089349;28;20044;-70
2023/12/16 06:52:22;;;;;;;3.40;1.80;;;;;;;;;;5089339;28;20113;-70
2023/12/16 06:54:48;;;;;;;2.15;1.60;;;;;;;;;;5089218;28;20047;-69
2023/12/16 06:57:15;;;;;;;4.38;2.67;;;;;;;;;;5088939;28;20125;-69
2023/12/16 06:59:42;;;;;;;2.92;1.90;;;;;;;;;;5089562;28;20044;-69
2023/12/16 07:02:08;;;;;;;4.63;2.20;;;;;;;;;;5089473;28;20048;-69
2023/12/16 07:04:36;;;;;;;3.38;1.92;;;;;;;;;;5071110;28;20408;-70
2023/12/16 07:07:03;;;;;;;3.15;1.88;;;;;;;;;;5089432;28;20044;-70
2023/12/16 07:09:29;;;;;;;4.28;2.22;;;;;;;;;;5088805;28;20055;-70
2023/12/16 07:11:56;;;;;;;4.85;2.08;;;;;;;;;;5088902;28;20523;-69
2023/12/16 07:14:23;;;;;;;3.55;2.05;;;;;;;;;;5089321;28;20047;-70
2023/12/16 07:16:50;;;;;;;5.05;2.38;;;;;;;;;;5089056;28;20613;-70
2023/12/16 07:19:21;;;;;;;3.45;2.03;;;;;;;;;;5089071;28;20072;-69
2023/12/16 07:21:48;;;;;;;3.08;2.10;;;;;;;;;;5089388;28;20139;-70
2023/12/16 07:24:14;;;;;;;2.72;1.67;;;;;;;;;;5088237;28;20526;-70
2023/12/16 07:26:41;;;;;;;4.30;2.40;;;;;;;;;;5089268;28;20044;-70
2023/12/16 07:29:08;;;;;;;3.28;2.22;;;;;;;;;;5088258;28;20148;-70
2023/12/16 07:31:34;;;;;;;3.63;2.00;;;;;;;;;;5089057;28;20048;-71
2023/12/16 07:34:01;;;;;;;3.00;1.88;;;;;;;;;;5088842;28;20048;-70
2023/12/16 07:36:28;;;;;;;3.45;2.13;;;;;;;;;;5088634;28;20048;-70
2023/12/16 07:38:58;;;;;;;2.53;1.77;;;;;;;;;;5088242;28;20059;-70
2023/12/16 07:41:24;;;;;;;4.07;2.40;;;;;;;;;;5089044;28;20040;-70
2023/12/16 07:43:51;;;;;;;2.90;1.90;;;;;;;;;;5088390;28;20541;-70
2023/12/16 07:46:18;;;;;;;2.80;1.63;;;;;;;;;;5089036;28;20059;-70
2023/12/16 07:48:45;;;;;;;3.13;1.88;;;;;;;;;;5088363;28;20052;-70
2023/12/16 07:51:15;;;;;;;3.05;1.95;;;;;;;;;;5088550;28;20044;-70
2023/12/16 07:53:48;;;;;;;2.65;1.92;;;;;;;;;;5088288;28;20048;-70
2023/12/16 07:56:24;;;;;;;3.42;1.90;;;;;;;;;;5088679;28;20046;-70
2023/12/16 07:58:51;;;;;;;3.92;2.28;;;;;;;;;;5087928;28;20048;-70
2023/12/16 08:01:18;;;;;;;3.30;1.98;;;;;;;;;;5088871;28;20048;-70
2023/12/16 08:03:46;;;;;;;2.97;2.13;;;;;;;;;;5088025;28;20044;-70
2023/12/16 08:06:16;;;;;;;3.63;2.10;;;;;;;;;;5088352;28;20487;-70
2023/12/16 08:08:45;;;;;;;3.30;2.20;;;;;;;;;;5087146;28;20101;-70
2023/12/16 08:11:12;;;;;;;4.13;2.45;;;;;;;;;;5085591;28;20036;-70
2023/12/16 08:13:38;;;;;;;4.78;2.53;;;;;;;;;;5087846;28;20047;-70
2023/12/16 08:16:07;;;;;;;3.95;2.35;;;;;;;;;;5087910;28;20036;-70
2023/12/16 08:18:34;;;;;;;2.88;2.03;;;;;;;;;;5087563;28;20076;-70
2023/12/16 08:21:00;;;;;;;3.80;2.50;;;;;;;;;;5087904;28;20048;-70
2023/12/16 08:23:27;;;;;;;4.13;2.78;;;;;;;;;;5087801;28;20048;-69
2023/12/16 08:25:54;;;;;;;3.58;2.22;;;;;;;;;;5087026;28;20405;-70
2023/12/16 08:28:20;;;;;;;3.40;2.15;;;;;;;;;;5087184;28;20048;-70
2023/12/16 08:30:49;;;;;;;4.20;2.33;;;;;;;;;;5087355;28;20087;-70
2023/12/16 08:33:16;;;;;;;3.90;2.55;;;;;;;;;;5087189;28;20513;-70
2023/12/16 08:35:44;;;;;;;5.30;2.50;;;;;;;;;;5087663;28;20044;-70
2023/12/16 08:38:10;;;;;;;3.28;2.15;;;;;;;;;;5084693;28;20055;-72
2023/12/16 08:40:38;;;;;;;3.50;2.22;;;;;;;;;;5087292;28;20040;-70
2023/12/16 08:43:05;;;;;;;3.75;2.40;;;;;;;;;;5087658;28;20078;-70
2023/12/16 08:45:32;;;;;;;3.70;2.08;;;;;;;;;;5078037;28;20040;-70
2023/12/16 08:47:58;;;;;;;3.40;2.80;;;;;;;;;;5087363;28;20051;-70
2023/12/16 08:50:27;;;;;;;3.75;2.42;;;;;;;;;;5087506;28;20040;-70
2023/12/16 08:52:53;;;;;;;3.50;2.25;;;;;;;;;;5087221;28;20504;-70
2023/12/16 08:55:21;;;;;;;3.55;2.53;;;;;;;;;;5086865;28;20456;-71
2023/12/16 08:57:51;;;;;;;4.43;2.50;;;;;;;;;;5084788;28;20055;-70
2023/12/16 09:00:21;;;;;;;4.82;2.90;;;;;;;;;;5078018;28;20054;-71
2023/12/16 09:02:48;;;;;;;5.53;2.88;;;;;;;;;;5087616;28;20079;-70
2023/12/16 09:05:16;;;;;;;5.00;2.60;;;;;;;;;;5087512;28;20467;-70
2023/12/16 09:07:42;;;;;;;4.53;2.60;;;;;;;;;;5087448;28;20036;-71
2023/12/16 09:10:09;;;;;;;4.40;2.72;;;;;;;;;;5089259;28;20055;-70
2023/12/16 09:12:36;;;;;;;4.03;2.67;;;;;;;;;;5091063;28;20036;-71
2023/12/16 09:15:04;;;;;;;4.72;2.95;;;;;;;;;;5090989;28;20048;-70
2023/12/16 09:17:30;;;;;;;5.20;2.97;;;;;;;;;;5073286;28;20047;-71
2023/12/16 09:19:57;;;;;;;5.38;2.88;;;;;;;;;;5091252;28;20058;-71
2023/12/16 09:22:24;;;;;;;5.38;2.95;;;;;;;;;;5091615;28;20040;-71
2023/12/16 09:24:51;;;;;;;7.07;3.50;;;;;;;;;;5090659;28;20060;-70
2023/12/16 09:27:18;;;;;;;6.00;3.20;;;;;;;;;;5091150;28;20048;-71
2023/12/16 09:29:44;;;;;;;4.82;3.05;;;;;;;;;;5090354;28;20061;-71
2023/12/16 09:32:11;;;;;;;4.55;2.70;;;;;;;;;;5091252;28;20048;-70
2023/12/16 09:34:38;;;;;;;5.00;2.97;;;;;;;;;;5091057;28;20075;-71
2023/12/16 09:37:05;;;;;;;5.88;3.53;;;;;;;;;;5091408;28;20044;-71
2023/12/16 09:39:32;;;;;;;5.63;2.83;;;;;;;;;;5090247;28;20458;-71
2023/12/16 09:42:02;;;;;;;4.38;2.97;;;;;;;;;;5091321;28;20051;-71
2023/12/16 09:44:35;;;;;;;6.15;3.40;;;;;;;;;;5090624;28;20480;-71
2023/12/16 09:47:03;;;;;;;5.82;3.20;;;;;;;;;;5091075;28;20044;-71
2023/12/16 09:49:32;;;;;;;4.30;2.90;;;;;;;;;;5090339;28;20048;-71
2023/12/16 09:52:00;;;;;;;5.63;3.33;;;;;;;;;;5090684;28;20055;-71
2023/12/16 09:54:27;;;;;;;5.50;3.05;;;;;;;;;;5090272;28;20044;-71
2023/12/16 09:56:55;;;;;;;5.38;3.10;;;;;;;;;;5090694;28;20530;-71
2023/12/16 09:59:25;;;;;;;6.55;3.10;;;;;;;;;;5072239;28;20492;-71
2023/12/16 10:01:58;;;;;;;4.93;2.92;;;;;;;;;;5090939;28;20044;-71
2023/12/16 10:04:26;;;;;;;5.03;2.80;;;;;;;;;;5090462;28;20105;-71
2023/12/16 10:06:53;;;;;;;6.32;3.70;;;;;;;;;;5090336;28;20147;-71
2023/12/16 10:09:20;;;;;;;5.75;3.25;;;;;;;;;;5090095;28;20059;-71
2023/12/16 10:11:51;;;;;;;6.50;3.50;;;;;;;;;;5090564;28;20055;-71
2023/12/16 10:14:17;;;;;;;6.68;2.80;;;;;;;;;;5090116;28;20054;-71
2023/12/16 10:16:47;;;;;;;4.50;2.85;;;;;;;;;;5090599;28;20108;-71
2023/12/16 10:19:17;;;;;;;4.75;2.80;;;;;;;;;;5090110;28;20048;-71
2023/12/16 10:21:44;;;;;;;4.30;2.90;;;;;;;;;;5089552;28;20454;-71
2023/12/16 10:24:11;;;;;;;7.25;3.10;;;;;;;;;;5089492;28;20048;-71
2023/12/16 10:26:42;;;;;;;3.25;2.00;;;;;;;;;;5090308;28;20051;-71
2023/12/16 10:29:10;;;;;;;3.05;1.70;;;;;;;;;;5089521;28;20044;-70
2023/12/16 10:31:37;;;;;;;3.97;1.83;;;;;;;;;;5090037;28;20145;-70
2023/12/16 10:34:04;;;;;;;4.40;1.67;;;;;;;;;;5089310;28;20051;-71
2023/12/16 10:36:31;;;;;;;3.40;1.52;;;;;;;;;;5089140;28;20499;-71
2023/12/16 10:38:58;;;;;;;4.57;1.40;;;;;;;;;;5089210;28;20127;-71
2023/12/16 10:41:25;;;;;;;4.78;1.90;;;;;;;;;;5089455;28;20040;-71
2023/12/16 10:43:51;;;;;;;3.17;1.63;;;;;;;;;;5089229;28;20589;-71
2023/12/16 10:46:29;;;;;;;3.40;1.63;;;;;;;;;;5088870;28;20040;-71
2023/12/16 10:49:00;;;;;;;2.42;1.50;;;;;;;;;;5088752;28;20067;-71
2023/12/16 10:51:29;;;;;;;3.88;1.60;;;;;;;;;;5088769;28;20080;-71
2023/12/16 10:54:17;;;;;;;3.33;1.75;;;;;;;;;;5095615;28;20557;-70
2023/12/16 10:56:51;;;;;;;;;;;;;;;;;;5088083;28;20036;-71
2023/12/16 10:59:25;;;;;;;3.35;1.67;;;;;;;;;;5086630;28;19931;-71
2023/12/16 11:01:56;;;;;;;3.25;1.58;;;;;;;;;;5088843;28;20044;-71
2023/12/16 11:04:25;;;;;;;4.53;1.70;;;;;;;;;;5089318;28;20048;-71
2023/12/16 11:07:00;;;;;;;3.03;1.60;;;;;;;;;;5089069;28;20056;-71
2023/12/16 11:09:27;;;;;;;5.05;1.50;;;;;;;;;;5088839;28;20044;-71
2023/12/16 11:11:57;;;;;;;3.13;1.67;;;;;;;;;;5088943;28;20044;-71
2023/12/16 11:14:25;;;;;;;2.25;1.45;;;;;;;;;;5089642;28;20040;-71
2023/12/16 11:17:00;;;;;;;2.88;1.50;;;;;;;;;;5088990;28;20043;-71
2023/12/16 11:19:44;;;;;;;3.90;1.50;;;;;;;;;;5089229;28;20490;-71
2023/12/16 11:22:20;;;;;;;2.83;1.30;;;;;;;;;;5071806;28;20123;-71
2023/12/16 11:24:46;;;;;;;3.13;1.58;;;;;;;;;;5088642;28;20781;-71
2023/12/16 11:27:15;;;;;;;3.00;1.50;;;;;;;;;;5088782;28;20416;-71
2023/12/16 11:29:42;;;;;;;3.10;1.58;;;;;;;;;;5088405;28;20055;-70
2023/12/16 11:32:10;;;;;;;3.35;1.60;;;;;;;;;;5088436;28;20055;-71
2023/12/16 11:34:53;;;;;;;3.25;1.52;;;;;;;;;;5088720;28;20055;-71
2023/12/16 11:37:35;;;;;;;3.30;1.50;;;;;;;;;;5088978;28;20645;-71
2023/12/16 11:40:04;;;;;;;2.45;1.52;;;;;;;;;;5088325;28;20098;-71
2023/12/16 11:42:53;;;;;;;3.22;1.50;;;;;;;;;;5088847;28;20048;-71
2023/12/16 11:45:39;;;;;;;3.60;1.45;;;;;;;;;;5088605;28;20044;-71
2023/12/16 11:48:07;;;;;;;2.78;1.30;;;;;;;;;;5088988;28;20064;-71
2023/12/16 11:50:39;;;;;;;2.25;1.38;;;;;;;;;;5088233;28;20101;-71
2023/12/16 11:53:11;;;;;;;2.80;1.40;;;;;;;;;;5088743;28;20125;-71
2023/12/16 11:55:38;;;;;;;1.98;1.17;;;;;;;;;;5088061;28;20052;-71
2023/12/16 11:58:06;;;;;;;2.22;1.08;;;;;;;;;;5070784;28;20561;-71
2023/12/16 12:00:33;;;;;;;3.08;1.30;;;;;;;;;;5088392;28;20121;-71
2023/12/16 12:03:00;;;;;;;2.70;1.23;;;;;;;;;;5088763;28;20044;-71
2023/12/16 12:05:31;;;;;;;2.73;1.10;;;;;;;;;;5088219;28;20090;-71
2023/12/16 12:07:58;;;;;;;1.58;0.90;;;;;;;;;;5088423;28;20365;-71
2023/12/16 12:10:25;;;;;;;2.45;0.95;;;;;;;;;;5087661;28;20063;-71
2023/12/16 12:12:52;;;;;;;1.80;1.13;;;;;;;;;;5088438;28;20044;-71
2023/12/16 12:15:19;;;;;;;3.80;0.98;;;;;;;;;;5088775;28;20048;-71
2023/12/16 12:17:46;;;;;;;1.98;0.90;;;;;;;;;;5088440;28;20083;-71
2023/12/16 12:20:16;;;;;;;1.80;1.10;;;;;;;;;;5088271;28;20075;-71
2023/12/16 12:22:43;;;;;;;2.13;1.10;;;;;;;;;;5088585;28;20071;-71
2023/12/16 12:25:16;;;;;;;2.25;1.15;;;;;;;;;;5087739;28;20301;-71
2023/12/16 12:27:43;;;;;;;2.20;1.00;;;;;;;;;;5088527;28;20055;-71
2023/12/16 12:30:16;;;;;;;1.65;0.88;;;;;;;;;;5087798;28;20052;-71
2023/12/16 12:32:43;;;;;;;2.28;0.90;;;;;;;;;;5088474;28;20131;-71
2023/12/16 12:35:11;;;;;;;2.60;1.00;;;;;;;;;;5088678;28;20059;-71
2023/12/16 12:37:42;;;;;;;1.80;0.90;;;;;;;;;;5070411;28;20052;-71
2023/12/16 12:40:13;;;;;;;3.25;0.90;;;;;;;;;;5069906;28;20598;-71
2023/12/16 12:42:50;;;;;;;1.27;0.80;;;;;;;;;;5087854;28;20032;-71
2023/12/16 12:45:30;;;;;;;1.48;0.80;;;;;;;;;;5091187;28;20134;-71
2023/12/16 12:48:17;;;;;;;1.42;0.80;;;;;;;;;;5091760;28;20087;-71
2023/12/16 12:50:47;;;;;;;1.05;0.60;;;;;;;;;;5091593;28;20051;-71
2023/12/16 12:53:18;;;;;;;1.08;0.60;;;;;;;;;;5092121;28;20048;-71
2023/12/16 12:55:51;;;;;;;1.50;0.73;;;;;;;;;;5091638;28;20056;-71
2023/12/16 12:58:19;;;;;;;1.95;1.30;;;;;;;;;;5091715;28;20431;-71
2023/12/16 13:00:59;;;;;;;1.63;0.82;;;;;;;;;;5091532;28;20064;-71
2023/12/16 13:03:32;;;;;;;2.10;0.90;;;;;;;;;;5091821;28;20048;-71
2023/12/16 13:06:02;;;;;;;1.67;0.80;;;;;;;;;;5091318;28;20044;-71
2023/12/16 13:08:33;;;;;;;2.63;1.02;;;;;;;;;;5091026;28;20519;-72
2023/12/16 13:11:00;;;;;;;2.28;0.90;;;;;;;;;;5090276;28;20093;-71
2023/12/16 13:13:29;;;;;;;2.42;0.98;;;;;;;;;;5091518;28;20051;-71
2023/12/16 13:15:56;;;;;;;2.28;1.00;;;;;;;;;;5091826;28;20050;-71
2023/12/16 13:18:25;;;;;;;1.50;1.10;;;;;;;;;;5091195;28;20101;-71
2023/12/16 13:20:54;;;;;;;1.70;1.00;;;;;;;;;;5091325;28;20071;-71
2023/12/16 13:23:21;;;;;;;2.30;0.95;;;;;;;;;;5090981;28;20048;-71
2023/12/16 13:25:49;;;;;;;2.28;1.00;;;;;;;;;;5090757;28;20090;-71
2023/12/16 13:28:17;;;;;;;2.13;1.13;;;;;;;;;;5072962;28;20131;-71
2023/12/16 13:30:44;;;;;;;2.35;1.08;;;;;;;;;;5091085;28;20135;-71
2023/12/16 13:33:10;;;;;;;1.50;0.90;;;;;;;;;;5091096;28;20048;-71
2023/12/16 13:35:37;;;;;;;3.78;1.00;;;;;;;;;;5091000;28;20052;-71
2023/12/16 13:38:04;;;;;;;1.75;0.90;;;;;;;;;;5091048;28;20043;-71
2023/12/16 13:40:31;;;;;;;2.40;1.10;;;;;;;;;;5090444;28;20124;-71
2023/12/16 13:43:01;;;;;;;1.70;1.10;;;;;;;;;;5090661;28;20048;-71
2023/12/16 13:45:31;;;;;;;2.58;1.10;;;;;;;;;;5090932;28;20051;-71
2023/12/16 13:47:58;;;;;;;1.55;1.00;;;;;;;;;;5090854;28;20048;-71
2023/12/16 13:50:25;;;;;;;1.95;1.00;;;;;;;;;;5072481;28;20143;-71
2023/12/16 13:52:52;;;;;;;2.50;1.38;;;;;;;;;;5090510;28;20052;-71
2023/12/16 13:55:18;;;;;;;2.63;1.40;;;;;;;;;;5089408;28;20519;-71
2023/12/16 13:57:45;;;;;;;2.00;1.23;;;;;;;;;;5090620;28;20131;-71
2023/12/16 14:00:12;;;;;;;2.42;1.25;;;;;;;;;;5090856;28;20416;-70
2023/12/16 14:02:39;;;;;;;1.90;1.20;;;;;;;;;;5090119;28;20048;-71
2023/12/16 14:05:07;;;;;;;2.28;1.23;;;;;;;;;;5089446;28;20097;-71
2023/12/16 14:07:33;;;;;;;1.63;1.10;;;;;;;;;;5090144;28;20046;-70
2023/12/16 14:10:02;;;;;;;2.58;1.40;;;;;;;;;;5089704;28;20060;-71
2023/12/16 14:12:29;;;;;;;3.20;1.20;;;;;;;;;;5089581;28;20052;-71
2023/12/16 14:14:56;;;;;;;3.00;1.30;;;;;;;;;;5090186;28;20044;-71
2023/12/16 14:17:22;;;;;;;3.47;1.45;;;;;;;;;;5089715;28;20040;-71
2023/12/16 14:19:49;;;;;;;2.45;1.20;;;;;;;;;;5089618;28;20458;-71
2023/12/16 14:22:16;;;;;;;1.15;0.90;;;;;;;;;;5089479;28;20067;-71
2023/12/16 14:24:43;;;;;;;2.22;1.23;;;;;;;;;;5088906;28;20554;-71
2023/12/16 14:27:09;;;;;;;3.65;1.75;;;;;;;;;;5089520;28;20503;-71
2023/12/16 14:29:36;;;;;;;4.20;1.70;;;;;;;;;;5089404;28;20054;-71
2023/12/16 14:32:03;;;;;;;2.65;1.42;;;;;;;;;;5089093;28;20078;-71
2023/12/16 14:34:29;;;;;;;3.80;1.23;;;;;;;;;;5089660;28;20040;-71
2023/12/16 14:36:56;;;;;;;2.58;1.17;;;;;;;;;;5086626;28;20063;-71
2023/12/16 14:39:23;;;;;;;2.30;1.30;;;;;;;;;;5079617;28;20048;-71
2023/12/16 14:41:50;;;;;;;2.42;1.30;;;;;;;;;;5088922;28;20074;-71
2023/12/16 14:44:17;;;;;;;2.20;1.35;;;;;;;;;;5086234;28;20059;-71
2023/12/16 14:46:43;;;;;;;3.35;1.35;;;;;;;;;;5089202;28;20508;-71